Time;durP1;ratioP1;P1;durP2;ratioP2;P2;SDS_P1;SDS_P2;PMS_P1;PMS_P2;Temp;Humidity;BMP_temperature;BMP_pressure;BME280_temperature;BME280_humidity;BME280_pressure;Samples;Min_cycle;Max_cycle;Signal;HPM_P1;HPM_P2
2021/11/23 00:02:01;;;;;;;75.07;41.43;;;;;;;6.16;68.88;100652.91;125246;1099;104159;-83
2021/11/23 00:04:32;;;;;;;78.63;43.17;;;;;;;6.14;68.78;100652.83;125203;1099;104240;-84
2021/11/23 00:07:03;;;;;;;81.07;42.97;;;;;;;6.14;69.00;100662.33;125195;1100;104185;-84
2021/11/23 00:09:33;;;;;;;82.57;45.70;;;;;;;6.16;68.63;100663.33;125385;1099;104251;-81
2021/11/23 00:12:05;;;;;;;76.90;43.30;;;;;;;6.17;68.87;100665.11;126351;1099;104685;-83
2021/11/23 00:14:36;;;;;;;81.03;44.03;;;;;;;6.19;68.70;100663.51;126306;1099;104159;-83
2021/11/23 00:17:07;;;;;;;83.10;46.07;;;;;;;6.20;68.88;100662.67;125388;1099;104182;-82
2021/11/23 00:19:37;;;;;;;85.30;46.07;;;;;;;6.20;68.62;100668.80;125781;1099;104233;-83
2021/11/23 00:22:08;;;;;;;83.60;45.85;;;;;;;6.26;68.95;100668.23;125204;1102;104302;-81
2021/11/23 00:24:39;;;;;;;83.33;44.63;;;;;;;6.30;68.66;100670.20;125282;1099;104146;-82
2021/11/23 00:27:10;;;;;;;77.63;42.80;;;;;;;6.32;68.88;100678.11;125282;1099;104156;-83
2021/11/23 00:29:41;;;;;;;78.83;42.83;;;;;;;6.39;68.80;100670.72;125629;1099;104647;-83
2021/11/23 00:32:12;;;;;;;74.80;43.83;;;;;;;6.47;68.18;100673.74;125260;1099;104147;-82
2021/11/23 00:34:43;;;;;;;84.63;45.63;;;;;;;6.51;68.76;100674.80;125412;1099;104150;-82
2021/11/23 00:37:14;;;;;;;84.50;46.73;;;;;;;6.52;68.71;100679.21;126326;1099;104152;-81
2021/11/23 00:39:47;;;;;;;76.20;43.63;;;;;;;6.52;68.73;100681.81;125192;1099;104207;-82
2021/11/23 00:42:18;;;;;;;76.40;42.87;;;;;;;6.49;68.59;100677.32;125210;1099;104147;-83
2021/11/23 00:44:49;;;;;;;77.23;42.17;;;;;;;6.45;68.87;100681.48;125318;1102;104299;-83
2021/11/23 00:47:20;;;;;;;76.60;42.37;;;;;;;6.40;68.91;100680.30;125268;1102;104188;-83
2021/11/23 00:49:50;;;;;;;75.43;39.77;;;;;;;6.37;69.00;100677.53;125236;1102;104160;-82
2021/11/23 00:52:22;;;;;;;74.67;39.33;;;;;;;6.37;69.02;100682.74;125292;1102;102920;-81
2021/11/23 00:54:54;;;;;;;74.17;40.10;;;;;;;6.36;68.84;100683.58;125264;1102;104143;-83
2021/11/23 00:57:25;;;;;;;75.97;40.83;;;;;;;6.34;68.96;100674.75;125306;1102;104302;-83
2021/11/23 00:59:55;;;;;;;76.27;42.53;;;;;;;6.33;68.89;100674.66;125273;1102;104146;-83
2021/11/23 01:02:26;;;;;;;81.30;44.20;;;;;;;6.29;69.06;100682.34;125274;1102;104204;-82
2021/11/23 01:04:57;;;;;;;77.20;41.93;;;;;;;6.25;69.16;100687.30;125228;1102;104511;-82
2021/11/23 01:07:28;;;;;;;73.77;40.33;;;;;;;6.21;69.33;100693.14;125294;1102;104376;-84
2021/11/23 01:10:02;;;;;;;69.65;37.63;;;;;;;6.18;69.62;100695.58;125267;1102;104153;-84
2021/11/23 01:12:33;;;;;;;75.57;41.27;;;;;;;6.15;69.47;100695.40;125329;1102;105318;-84
2021/11/23 01:15:06;;;;;;;75.00;40.87;;;;;;;6.09;69.54;100702.06;125305;1102;104236;-84
2021/11/23 01:17:38;;;;;;;79.70;43.50;;;;;;;6.06;69.76;100701.89;126138;1099;104573;-83
2021/11/23 01:20:11;;;;;;;77.37;42.83;;;;;;;6.04;69.29;100703.49;125174;1099;104156;-82
2021/11/23 01:22:45;;;;;;;75.75;40.45;;;;;;;6.03;69.77;100706.93;125228;1099;104184;-83
2021/11/23 01:25:16;;;;;;;74.35;38.90;;;;;;;6.01;69.35;100713.73;125231;1100;104290;-84
2021/11/23 01:27:47;;;;;;;67.10;36.40;;;;;;;6.02;69.38;100714.66;125253;1102;102862;-82
2021/11/23 01:30:19;;;;;;;71.53;39.23;;;;;;;6.04;70.01;100715.63;125283;1099;104156;-82
2021/11/23 01:32:50;;;;;;;78.00;40.50;;;;;;;6.02;69.59;100715.55;126313;1099;104156;-82
2021/11/23 01:35:21;;;;;;;72.70;40.85;;;;;;;6.01;70.44;100723.27;126322;1099;104227;-84
2021/11/23 01:37:52;;;;;;;71.43;37.73;;;;;;;5.99;70.00;100715.36;126356;1099;104182;-84
2021/11/23 01:40:23;;;;;;;67.60;36.70;;;;;;;5.98;69.97;100715.27;126116;1099;105746;-81
2021/11/23 01:42:55;;;;;;;67.97;35.90;;;;;;;5.99;70.05;100722.30;125238;1102;104383;-81
2021/11/23 01:45:26;;;;;;;67.80;37.37;;;;;;;5.99;70.06;100717.97;125223;1099;104223;-81
2021/11/23 01:47:57;;;;;;;72.15;39.65;;;;;;;5.96;69.99;100725.57;125273;1099;104150;-82
2021/11/23 01:50:28;;;;;;;71.33;39.53;;;;;;;5.93;70.32;100728.89;125351;1099;104149;-81
2021/11/23 01:53:00;;;;;;;72.23;39.57;;;;;;;5.92;70.39;100723.59;126317;1099;117777;-82
2021/11/23 01:55:33;;;;;;;72.27;39.07;;;;;;;5.93;70.21;100720.19;126331;1099;104258;-82
2021/11/23 01:58:06;;;;;;;70.03;37.73;;;;;;;5.93;70.24;100723.67;125251;1102;105094;-81
2021/11/23 02:00:37;;;;;;;66.63;36.60;;;;;;;5.93;70.21;100720.19;125345;1102;104146;-82
2021/11/23 02:03:10;;;;;;;74.20;39.97;;;;;;;5.96;70.34;100716.88;125300;1102;104118;-83
2021/11/23 02:05:42;;;;;;;72.67;39.37;;;;;;;5.98;70.56;100710.95;125359;1102;104300;-81
2021/11/23 02:08:13;;;;;;;73.00;39.75;;;;;;;6.00;70.32;100713.65;125314;1102;104291;-81
2021/11/23 02:10:43;;;;;;;72.30;40.10;;;;;;;6.05;70.65;100722.65;125296;1102;104758;-82
2021/11/23 02:13:15;;;;;;;70.53;38.77;;;;;;;6.06;70.76;100725.34;125238;1102;111442;-83
2021/11/23 02:15:46;;;;;;;73.73;38.90;;;;;;;6.09;70.41;100725.52;125287;1102;104207;-82
2021/11/23 02:18:19;;;;;;;67.70;36.83;;;;;;;6.13;70.61;100728.30;125281;1102;104358;-82
2021/11/23 02:20:51;;;;;;;67.53;37.47;;;;;;;6.16;70.85;100728.47;125264;1102;104175;-83
2021/11/23 02:23:24;;;;;;;66.57;38.37;;;;;;;6.14;70.88;100730.98;125266;1102;105279;-84
2021/11/23 02:25:54;;;;;;;72.47;39.53;;;;;;;6.10;70.71;100721.20;125283;1102;104440;-83
2021/11/23 02:28:26;;;;;;;68.23;37.30;;;;;;;6.10;70.84;100716.87;125369;1102;104354;-83
2021/11/23 02:30:59;;;;;;;70.90;37.33;;;;;;;6.08;70.88;100726.31;125277;1097;104174;-84
2021/11/23 02:33:31;;;;;;;70.20;37.43;;;;;;;6.06;70.80;100734.84;126274;1099;104153;-83
2021/11/23 02:36:05;;;;;;;69.00;37.77;;;;;;;6.01;70.85;100733.69;126314;1099;104168;-83
2021/11/23 02:38:37;;;;;;;68.07;37.23;;;;;;;5.97;71.23;100732.63;126321;1099;104146;-83
2021/11/23 02:41:12;;;;;;;67.47;36.67;;;;;;;5.93;71.54;100735.81;126357;1098;104322;-83
2021/11/23 02:43:44;;;;;;;62.17;34.70;;;;;;;5.93;71.50;100725.39;126230;1099;104252;-82
2021/11/23 02:46:15;;;;;;;67.83;38.50;;;;;;;5.90;71.24;100730.42;126339;1099;104692;-84
2021/11/23 02:48:46;;;;;;;68.27;35.47;;;;;;;5.89;71.37;100733.83;126345;1099;104134;-83
2021/11/23 02:51:17;;;;;;;69.07;36.67;;;;;;;5.86;71.81;100738.86;125431;1099;104140;-83
2021/11/23 02:53:51;;;;;;;63.70;36.00;;;;;;;5.82;71.53;100742.11;126296;1099;104152;-83
2021/11/23 02:56:22;;;;;;;65.35;33.88;;;;;;;5.80;71.47;100733.29;126324;1099;104149;-83
2021/11/23 02:58:53;;;;;;;60.83;32.33;;;;;;;5.81;71.75;100741.19;126311;1098;104306;-82
2021/11/23 03:01:26;;;;;;;67.37;36.70;;;;;;;5.82;71.90;100737.80;126324;1099;104153;-84
2021/11/23 03:03:57;;;;;;;67.13;36.87;;;;;;;5.82;71.58;100731.70;125343;1099;104233;-82
2021/11/23 03:06:28;;;;;;;64.03;36.33;;;;;;;5.81;71.53;100728.17;126332;1099;104143;-83
2021/11/23 03:08:59;;;;;;;59.17;33.50;;;;;;;5.78;71.73;100730.62;126374;1099;104182;-83
2021/11/23 03:11:30;;;;;;;63.03;33.60;;;;;;;5.76;72.09;100725.33;125392;1099;104252;-83
2021/11/23 03:14:01;;;;;;;62.77;33.97;;;;;;;5.79;71.79;100729.80;125170;1099;104236;-83
2021/11/23 03:16:31;;;;;;;60.80;32.47;;;;;;;5.82;71.88;100732.58;125230;1099;104281;-83
2021/11/23 03:19:03;;;;;;;63.03;34.57;;;;;;;5.83;71.74;100734.39;125254;1099;104178;-83
2021/11/23 03:21:35;;;;;;;65.47;34.43;;;;;;;5.80;72.18;100731.61;125242;1099;104280;-83
2021/11/23 03:24:06;;;;;;;62.80;36.13;;;;;;;5.76;71.89;100727.02;125201;1099;104198;-83
2021/11/23 03:26:37;;;;;;;66.40;35.80;;;;;;;5.71;72.43;100731.06;125255;1099;104156;-82
2021/11/23 03:29:08;;;;;;;63.17;34.77;;;;;;;5.69;72.42;100730.97;125268;1099;104195;-82
2021/11/23 03:31:39;;;;;;;65.47;32.87;;;;;;;5.70;72.28;100737.07;125302;1099;104291;-82
2021/11/23 03:34:10;;;;;;;61.63;33.70;;;;;;;5.69;72.79;100743.99;125229;1099;104245;-83
2021/11/23 03:36:41;;;;;;;61.20;33.40;;;;;;;5.68;72.19;100739.58;125235;1099;104152;-82
2021/11/23 03:39:13;;;;;;;62.27;33.63;;;;;;;5.68;72.40;100752.59;125214;1099;104153;-83
2021/11/23 03:41:45;;;;;;;66.87;36.47;;;;;;;5.66;72.61;100746.41;125289;1099;104261;-82
2021/11/23 03:44:16;;;;;;;64.20;33.70;;;;;;;5.63;72.51;100747.95;125236;1099;104179;-83
2021/11/23 03:46:47;;;;;;;61.30;34.83;;;;;;;5.61;72.57;100752.14;125211;1099;104669;-83
2021/11/23 03:49:18;;;;;;;64.90;35.20;;;;;;;5.58;72.26;100748.56;125210;1099;104278;-83
2021/11/23 03:51:49;;;;;;;68.57;34.57;;;;;;;5.62;72.91;100751.34;125225;1099;104246;-83
2021/11/23 03:54:21;;;;;;;62.00;33.35;;;;;;;5.62;72.55;100749.63;125175;1099;104337;-83
2021/11/23 03:56:55;;;;;;;62.73;34.73;;;;;;;5.61;72.79;100755.67;125254;1099;104185;-82
2021/11/23 03:59:28;;;;;;;64.47;34.87;;;;;;;5.61;72.77;100744.33;125202;1101;104239;-81
2021/11/23 04:02:00;;;;;;;59.20;32.80;;;;;;;5.60;72.89;100753.86;125223;1102;104143;-81
2021/11/23 04:04:31;;;;;;;64.90;35.13;;;;;;;5.58;73.23;100752.88;125231;1102;104187;-81
2021/11/23 04:07:03;;;;;;;60.13;33.00;;;;;;;5.58;73.22;100758.09;125304;1102;104633;-81
2021/11/23 04:09:34;;;;;;;65.80;34.73;;;;;;;5.58;73.05;100753.77;125347;1101;104590;-80
2021/11/23 04:12:11;;;;;;;64.97;34.83;;;;;;;5.61;72.90;100755.67;125272;1102;104137;-81
2021/11/23 04:14:43;;;;;;;64.80;35.43;;;;;;;5.68;73.07;100750.00;125245;1099;104166;-81
2021/11/23 04:17:14;;;;;;;58.97;33.53;;;;;;;5.78;73.24;100753.14;125240;1099;104245;-81
2021/11/23 04:19:44;;;;;;;68.33;36.80;;;;;;;5.85;73.04;100748.39;125276;1099;104153;-80
2021/11/23 04:22:15;;;;;;;63.03;35.03;;;;;;;5.94;73.07;100743.72;125262;1099;104168;-81
2021/11/23 04:24:46;;;;;;;58.47;33.53;;;;;;;6.05;73.24;100746.98;125223;1099;104274;-81
2021/11/23 04:28:04;;;;;;;;;;;;;;;;;;;;;
2021/11/23 04:30:58;;;;;;;60.27;33.97;;;;;;;6.26;73.27;100751.63;125264;1102;104204;-82
2021/11/23 04:33:36;;;;;;;62.13;34.50;;;;;;;6.27;73.46;100754.31;125261;1099;104153;-82
2021/11/23 04:36:07;;;;;;;65.13;34.83;;;;;;;6.27;73.25;100750.82;125203;1099;104195;-83
2021/11/23 04:38:38;;;;;;;58.93;32.70;;;;;;;6.23;73.49;100759.27;125241;1099;104242;-82
2021/11/23 04:41:09;;;;;;;61.23;34.03;;;;;;;6.16;73.30;100765.84;125278;1099;104140;-82
2021/11/23 04:43:40;;;;;;;57.67;32.67;;;;;;;6.10;73.86;100761.16;125215;1099;104277;-81
2021/11/23 04:46:11;;;;;;;64.53;32.63;;;;;;;6.06;73.58;100767.02;125148;1099;104163;-82
2021/11/23 04:48:42;;;;;;;57.30;32.83;;;;;;;6.02;73.95;100767.64;125297;1099;104146;-82
2021/11/23 04:51:13;;;;;;;60.23;33.63;;;;;;;6.00;74.72;100769.27;125265;1099;104286;-82
2021/11/23 04:53:44;;;;;;;62.90;33.63;;;;;;;5.97;73.92;100770.78;125157;1098;104639;-82
2021/11/23 04:56:15;;;;;;;64.13;34.93;;;;;;;5.92;73.85;100779.20;125233;1099;104143;-82
2021/11/23 04:58:46;;;;;;;57.90;34.17;;;;;;;5.86;74.03;100780.53;125276;1099;104143;-82
2021/11/23 05:01:17;;;;;;;62.67;35.17;;;;;;;5.82;74.00;100788.98;125288;1099;104194;-83
2021/11/23 05:03:48;;;;;;;60.47;34.67;;;;;;;5.75;74.39;100799.04;125285;1102;104347;-82
2021/11/23 05:06:19;;;;;;;67.70;36.67;;;;;;;5.68;74.49;100796.86;125348;1102;104621;-83
2021/11/23 05:08:49;;;;;;;67.57;36.63;;;;;;;5.62;74.43;100795.60;125305;1102;104194;-83
2021/11/23 05:11:21;;;;;;;65.30;34.93;;;;;;;5.58;74.24;100786.72;125252;1101;104191;-82
2021/11/23 05:13:52;;;;;;;64.37;37.23;;;;;;;5.56;74.30;100796.13;125288;1102;104306;-83
2021/11/23 05:16:22;;;;;;;63.33;34.63;;;;;;;5.57;74.57;100792.72;125276;1102;104342;-83
2021/11/23 05:18:54;;;;;;;58.23;32.83;;;;;;;5.58;74.40;100791.93;125199;1102;104159;-82
2021/11/23 05:21:28;;;;;;;60.07;35.27;;;;;;;5.56;74.76;100793.52;125253;1102;104319;-82
2021/11/23 05:23:59;;;;;;;64.00;35.50;;;;;;;5.55;74.88;100800.44;125260;1102;105305;-83
2021/11/23 05:26:30;;;;;;;60.20;33.20;;;;;;;5.54;74.91;100802.95;125216;1102;104681;-82
2021/11/23 05:29:01;;;;;;;57.53;33.10;;;;;;;5.55;74.94;100803.05;125281;1102;104631;-82
2021/11/23 05:31:32;;;;;;;65.30;33.43;;;;;;;5.56;74.58;100803.93;125271;1102;104424;-82
2021/11/23 05:34:03;;;;;;;60.33;33.57;;;;;;;5.56;75.24;100809.14;125334;1102;104306;-81
2021/11/23 05:36:34;;;;;;;65.20;33.87;;;;;;;5.55;75.08;100809.97;125180;1099;104162;-81
2021/11/23 05:39:07;;;;;;;58.50;32.77;;;;;;;5.54;74.90;100802.95;125269;1099;104152;-80
2021/11/23 05:41:40;;;;;;;60.03;34.97;;;;;;;5.53;75.05;100806.34;125208;1099;104720;-80
2021/11/23 05:44:10;;;;;;;63.53;34.03;;;;;;;5.56;75.03;100815.27;125190;1098;104160;-80
2021/11/23 05:46:41;;;;;;;58.17;32.30;;;;;;;5.58;75.45;100821.45;125171;1099;104153;-82
2021/11/23 05:49:12;;;;;;;59.97;33.30;;;;;;;5.59;75.21;100811.92;125322;1099;104294;-81
2021/11/23 05:51:43;;;;;;;58.23;31.93;;;;;;;5.63;75.43;100810.43;125297;1099;104165;-81
2021/11/23 05:54:16;;;;;;;56.93;31.87;;;;;;;5.67;75.03;100821.13;125244;1099;104272;-80
2021/11/23 05:56:48;;;;;;;60.07;32.63;;;;;;;5.69;75.51;100822.10;125158;1099;104693;-81
2021/11/23 05:59:19;;;;;;;59.60;31.20;;;;;;;5.70;75.87;100821.31;125254;1099;104252;-81
2021/11/23 06:01:50;;;;;;;61.27;32.93;;;;;;;5.70;75.26;100825.59;125210;1099;104634;-82
2021/11/23 06:04:21;;;;;;;58.00;32.37;;;;;;;5.70;75.44;100839.53;125185;1099;104223;-82
2021/11/23 06:06:57;;;;;;;61.97;32.67;;;;;;;5.68;75.63;100848.94;125171;1099;104344;-81
2021/11/23 06:09:31;;;;;;;57.43;33.33;;;;;;;5.67;75.76;100841.95;125193;1099;104149;-82
2021/11/23 06:12:03;;;;;;;59.85;32.98;;;;;;;5.70;75.67;100847.34;125221;1099;104277;-82
2021/11/23 06:14:34;;;;;;;63.57;34.77;;;;;;;5.68;76.22;100854.14;125233;1099;104201;-82
2021/11/23 06:17:07;;;;;;;63.10;35.80;;;;;;;5.64;76.17;100859.99;125144;1099;104204;-82
2021/11/23 06:19:39;;;;;;;64.33;34.57;;;;;;;5.61;76.10;100869.30;125116;1099;103269;-82
2021/11/23 06:22:12;;;;;;;59.80;33.33;;;;;;;5.60;75.73;100870.13;125160;1099;104189;-81
2021/11/23 06:24:42;;;;;;;60.20;33.40;;;;;;;5.60;75.69;100876.22;125164;1099;104315;-81
2021/11/23 06:27:16;;;;;;;55.63;31.97;;;;;;;5.62;76.43;100873.70;125177;1099;104259;-80
2021/11/23 06:29:49;;;;;;;58.13;32.80;;;;;;;5.60;76.27;100877.93;125188;1099;104182;-81
2021/11/23 06:32:21;;;;;;;55.33;31.27;;;;;;;5.60;76.55;100881.42;125215;1099;104201;-80
2021/11/23 06:34:54;;;;;;;60.30;34.30;;;;;;;5.61;76.74;100885.84;125060;1099;104251;-80
2021/11/23 06:37:28;;;;;;;58.90;31.93;;;;;;;5.61;76.89;100883.23;125167;1099;104426;-81
2021/11/23 06:40:07;;;;;;;64.97;35.00;;;;;;;5.61;76.46;100885.84;125115;1101;104207;-80
2021/11/23 06:42:41;;;;;;;64.43;34.00;;;;;;;5.62;77.09;100890.22;125113;1102;104150;-81
2021/11/23 06:45:17;;;;;;;60.27;34.67;;;;;;;5.61;77.40;100898.86;125123;1099;104258;-81
2021/11/23 06:47:54;;;;;;;64.53;34.73;;;;;;;5.62;77.61;100899.74;125021;1099;104188;-82
2021/11/23 06:50:35;;;;;;;65.93;35.47;;;;;;;5.62;77.63;100904.95;125136;1099;104159;-83
2021/11/23 06:53:24;;;;;;;61.23;34.40;;;;;;;5.63;77.50;100896.34;125029;1102;104194;-82
2021/11/23 06:55:56;;;;;;;59.73;32.90;;;;;;;5.63;77.47;100901.55;125108;1099;104175;-80
2021/11/23 06:58:31;;;;;;;61.27;34.87;;;;;;;5.61;77.31;100901.46;125106;1099;104277;-81
2021/11/23 07:01:06;;;;;;;65.75;34.70;;;;;;;5.61;77.53;100897.94;125389;1100;104249;-84
2021/11/23 07:03:39;;;;;;;59.87;30.83;;;;;;;5.65;78.32;100905.14;125111;1102;104162;-81
2021/11/23 07:06:12;;;;;;;60.97;33.90;;;;;;;5.64;77.76;100905.94;125110;1099;104162;-82
2021/11/23 07:08:44;;;;;;;61.13;33.17;;;;;;;5.66;78.83;100912.16;125081;1099;104304;-79
2021/11/23 07:11:17;;;;;;;63.63;34.80;;;;;;;5.63;78.24;100911.97;125060;1099;104203;-82
2021/11/23 07:13:52;;;;;;;62.50;34.13;;;;;;;5.61;78.75;100914.48;125112;1099;104206;-82
2021/11/23 07:16:30;;;;;;;65.07;34.47;;;;;;;5.59;78.86;100918.66;125099;1102;104190;-82
2021/11/23 07:19:05;;;;;;;63.87;33.23;;;;;;;5.60;79.45;100923.08;125055;1099;102804;-84
2021/11/23 07:21:39;;;;;;;61.03;33.97;;;;;;;5.57;79.37;100918.57;125092;1102;104662;-82
2021/11/23 07:24:14;;;;;;;58.23;31.93;;;;;;;5.59;78.63;100918.66;125070;1099;104213;-83
2021/11/23 07:26:47;;;;;;;59.90;33.03;;;;;;;5.63;79.00;100920.66;125152;1099;104146;-82
2021/11/23 07:29:21;;;;;;;50.08;29.30;;;;;;;5.68;79.43;100931.37;125084;1099;104248;-81
2021/11/23 07:31:55;;;;;;;;;;;;;;;5.68;78.92;100933.97;125212;1103;104194;-79
2021/11/23 07:34:32;;;;;;;60.97;32.93;;;;;;;5.68;78.90;100949.59;125121;1099;102283;-83
2021/11/23 07:37:07;;;;;;;58.90;32.67;;;;;;;5.71;78.78;100950.67;125148;1102;104146;-83
2021/11/23 07:39:43;;;;;;;56.53;32.67;;;;;;;5.76;78.61;100953.56;125147;1099;104198;-82
2021/11/23 07:42:37;;;;;;;52.40;29.60;;;;;;;5.78;80.22;100951.98;125288;1099;104156;-83
2021/11/23 07:45:24;;;;;;;;;;;;;;;;;;;;;
2021/11/23 07:47:56;;;;;;;43.57;23.10;;;;;;;5.82;80.75;100973.89;125079;1099;104220;-81
2021/11/23 07:50:37;;;;;;;38.50;19.57;;;;;;;5.75;81.78;100976.11;125151;1102;104229;-83
2021/11/23 07:53:17;;;;;;;34.63;18.80;;;;;;;5.64;80.75;100977.16;125017;1099;104159;-81
2021/11/23 07:55:55;;;;;;;29.60;15.30;;;;;;;5.62;81.35;100985.66;125209;1099;104114;-80
2021/11/23 07:58:32;;;;;;;29.50;14.90;;;;;;;5.55;81.00;100984.38;125149;1102;104220;-81
2021/11/23 08:01:18;;;;;;;27.33;14.13;;;;;;;5.50;80.88;100986.69;125260;1099;104207;-81
2021/11/23 08:04:06;;;;;;;27.10;13.10;;;;;;;5.43;81.83;100994.01;125095;1102;104171;-80
2021/11/23 08:06:42;;;;;;;22.83;12.50;;;;;;;5.37;80.55;101000.59;125142;1099;104197;-82
2021/11/23 08:09:18;;;;;;;23.73;11.30;;;;;;;5.37;82.02;101013.61;125087;1102;104160;-81
2021/11/23 08:12:05;;;;;;;24.83;11.70;;;;;;;5.33;81.84;101016.83;125173;1099;104152;-81
2021/11/23 08:17:53;;;;;;;25.07;11.77;;;;;;;5.25;81.34;101020.65;125044;1102;104769;-80
2021/11/23 08:20:36;;;;;;;24.40;10.87;;;;;;;5.22;81.85;101025.65;124848;1102;104434;-83
2021/11/23 08:23:22;;;;;;;22.70;11.37;;;;;;;5.18;81.03;101024.53;125213;1102;104337;-81
2021/11/23 08:25:56;;;;;;;20.57;10.53;;;;;;;5.16;80.77;101038.25;124946;1102;104483;-80
2021/11/23 08:28:30;;;;;;;20.55;10.65;;;;;;;5.17;81.38;101037.43;124905;1103;104320;-83
2021/11/23 08:31:03;;;;;;;;;;;;;;;5.17;81.82;101042.64;125085;1102;117713;-80
2021/11/23 08:33:47;;;;;;;21.00;9.80;;;;;;;5.14;82.21;101051.16;124867;1102;104826;-81
2021/11/23 08:36:31;;;;;;;21.33;10.13;;;;;;;5.08;81.52;101052.43;125131;1102;104328;-81
2021/11/23 08:39:06;;;;;;;20.10;9.50;;;;;;;5.09;81.70;101051.64;125128;1102;104332;-80
2021/11/23 08:41:40;;;;;;;18.27;8.97;;;;;;;5.10;81.03;101059.55;125006;1102;104423;-80
2021/11/23 08:44:24;;;;;;;20.87;10.10;;;;;;;5.16;80.89;101057.36;125079;1102;104166;-80
2021/11/23 08:46:59;;;;;;;20.17;9.63;;;;;;;5.21;81.37;101062.86;125076;1100;104214;-79
2021/11/23 08:49:33;;;;;;;20.73;9.67;;;;;;;5.24;80.92;101063.06;125066;1099;104159;-80
2021/11/23 08:52:06;;;;;;;20.37;9.50;;;;;;;5.25;81.29;101069.16;125169;1099;104175;-80
2021/11/23 08:54:41;;;;;;;20.33;9.67;;;;;;;5.24;80.61;101070.87;125231;1099;104204;-79
2021/11/23 08:57:16;;;;;;;20.23;10.17;;;;;;;5.25;80.63;101064.88;125124;1099;104149;-80
2021/11/23 09:00:05;;;;;;;22.10;12.57;;;;;;;5.28;80.51;101067.66;125046;1099;104367;-79
2021/11/23 09:05:46;;;;;;;16.25;8.40;;;;;;;5.38;80.29;101077.88;124894;1106;104238;-80
2021/11/23 09:08:25;;;;;;;19.17;8.47;;;;;;;5.36;80.73;101073.36;124903;1106;104172;-79
2021/11/23 09:11:00;;;;;;;18.40;8.53;;;;;;;5.40;80.35;101077.98;124985;1105;104304;-79
2021/11/23 09:13:41;;;;;;;17.13;8.43;;;;;;;5.47;80.32;101076.67;124961;1105;104219;-80
2021/11/23 09:16:21;;;;;;;18.70;8.77;;;;;;;5.54;80.44;101078.89;125036;1105;104265;-79
2021/11/23 09:19:06;;;;;;;13.73;7.00;;;;;;;5.47;80.81;101079.27;124951;1106;104152;-79
2021/11/23 09:21:42;;;;;;;16.47;7.47;;;;;;;5.36;81.08;101086.38;124946;1105;105828;-80
2021/11/23 09:24:18;;;;;;;18.47;9.50;;;;;;;5.32;79.93;101087.89;125000;1105;104444;-80
2021/11/23 09:26:51;;;;;;;16.77;7.83;;;;;;;5.38;80.59;101088.30;124974;1106;104275;-79
2021/11/23 09:29:23;;;;;;;17.73;8.37;;;;;;;5.38;80.45;101084.80;124977;1105;104255;-79
2021/11/23 09:31:59;;;;;;;17.55;8.45;;;;;;;5.43;80.30;101077.30;124856;1105;104207;-82
2021/11/23 09:34:30;;;;;;;15.53;7.40;;;;;;;5.46;80.48;101082.70;124874;1106;104350;-80
2021/11/23 09:37:04;;;;;;;16.33;8.13;;;;;;;5.46;80.12;101088.80;124912;1105;104399;-83
2021/11/23 09:39:41;;;;;;;15.43;7.60;;;;;;;5.46;80.47;101090.51;124909;1105;104367;-80
2021/11/23 09:42:15;;;;;;;15.23;7.47;;;;;;;5.38;80.35;101090.89;124893;1105;104281;-80
2021/11/23 09:44:52;;;;;;;15.03;7.37;;;;;;;5.36;80.29;101092.50;125105;1099;104265;-81
2021/11/23 09:47:26;;;;;;;10.77;6.10;;;;;;;5.35;80.62;101097.61;125301;1099;104156;-80
2021/11/23 09:50:11;;;;;;;13.00;5.90;;;;;;;5.35;80.32;101101.10;125221;1099;104223;-81
2021/11/23 09:52:48;;;;;;;12.60;6.28;;;;;;;5.31;80.16;101106.00;125058;1099;108394;-79
2021/11/23 09:55:23;;;;;;;14.13;6.30;;;;;;;5.27;80.12;101110.11;125156;1099;104243;-81
2021/11/23 09:57:58;;;;;;;11.73;6.27;;;;;;;5.28;80.10;101111.89;125155;1099;104219;-81
2021/11/23 10:00:38;;;;;;;14.67;6.37;;;;;;;5.32;80.22;101111.31;125145;1099;104214;-80
2021/11/23 10:03:18;;;;;;;15.10;6.70;;;;;;;5.34;80.24;101114.91;125147;1099;117828;-79
2021/11/23 10:05:53;;;;;;;12.07;5.97;;;;;;;5.37;79.68;101111.61;125066;1099;104184;-79
2021/11/23 10:08:28;;;;;;;11.53;5.97;;;;;;;5.37;79.82;101096.00;125213;1102;104140;-80
2021/11/23 10:11:01;;;;;;;12.43;5.83;;;;;;;5.38;79.17;101101.30;125153;1099;104191;-81
2021/11/23 10:13:46;;;;;;;15.27;6.77;;;;;;;5.38;79.46;101106.52;125093;1102;104214;-79
2021/11/23 10:16:20;;;;;;;12.97;5.77;;;;;;;5.43;79.58;101105.92;125103;1100;104214;-81
2021/11/23 10:19:06;;;;;;;13.00;5.70;;;;;;;5.44;79.86;101105.10;124978;1102;104170;-79
2021/11/23 10:21:47;;;;;;;10.00;5.70;;;;;;;5.47;79.65;101107.91;125066;1099;104252;-80
2021/11/23 10:24:27;;;;;;;12.87;6.30;;;;;;;5.53;79.46;101104.03;125099;1099;104141;-82
2021/11/23 10:27:18;;;;;;;10.93;5.53;;;;;;;5.53;79.48;101101.42;125065;1102;104223;-79
2021/11/23 10:29:55;;;;;;;11.07;5.30;;;;;;;5.62;79.30;101095.01;125032;1099;104181;-81
2021/11/23 10:32:41;;;;;;;11.87;5.37;;;;;;;5.66;79.33;101100.52;125034;1102;104267;-79
2021/11/23 10:35:23;;;;;;;11.15;5.70;;;;;;;5.72;79.47;101102.63;125154;1099;104187;-81
2021/11/23 10:37:58;;;;;;;8.33;4.83;;;;;;;5.76;78.95;101097.72;125134;1102;104253;-80
2021/11/23 10:40:36;;;;;;;10.33;4.93;;;;;;;5.73;79.00;101107.02;125100;1102;104332;-80
2021/11/23 10:43:13;;;;;;;8.43;5.20;;;;;;;5.73;79.01;101107.02;125148;1102;104207;-81
2021/11/23 10:45:50;;;;;;;10.03;5.40;;;;;;;5.75;79.13;101111.53;125130;1101;104188;-80
2021/11/23 10:48:28;;;;;;;13.37;6.10;;;;;;;5.83;79.31;101108.50;125137;1102;104363;-81
2021/11/23 10:51:08;;;;;;;9.70;5.30;;;;;;;5.86;79.27;101099.20;125313;1102;104275;-81
2021/11/23 10:53:45;;;;;;;13.17;6.43;;;;;;;5.86;78.84;101099.20;125212;1102;104213;-83
2021/11/23 10:56:26;;;;;;;14.20;6.23;;;;;;;5.84;79.25;101102.50;125294;1102;104488;-82
2021/11/23 10:59:01;;;;;;;12.40;6.13;;;;;;;5.83;79.02;101101.61;125194;1102;104382;-81
2021/11/23 11:01:40;;;;;;;14.00;6.97;;;;;;;5.89;79.39;101104.61;125189;1102;104382;-82
2021/11/23 11:04:19;;;;;;;8.47;5.37;;;;;;;5.89;78.84;101104.61;124904;1105;109891;-82
2021/11/23 11:06:54;;;;;;;8.77;4.97;;;;;;;5.83;78.91;101108.50;124984;1105;104456;-80
2021/11/23 11:10:05;;;;;;;7.67;4.80;;;;;;;5.70;79.32;101107.73;124926;1102;104255;-80
2021/11/23 11:13:23;;;;;;;8.43;5.37;;;;;;;5.58;79.03;101107.83;124823;1102;104329;-82
2021/11/23 11:16:30;;;;;;;11.10;5.40;;;;;;;5.55;78.95;101105.02;124791;1105;104156;-82
2021/11/23 11:19:22;;;;;;;14.77;6.60;;;;;;;5.46;78.84;101087.91;124775;1106;104182;-81
2021/11/23 11:22:08;;;;;;;15.93;7.57;;;;;;;5.53;79.47;101098.83;124824;1105;104160;-82
2021/11/23 11:25:05;;;;;;;16.87;8.30;;;;;;;5.51;78.96;101107.32;125107;1102;118001;-81
2021/11/23 11:27:47;;;;;;;15.90;7.23;;;;;;;5.47;79.28;101100.10;125012;1102;104357;-81
2021/11/23 11:30:29;;;;;;;14.87;7.30;;;;;;;5.42;79.39;101096.30;125113;1103;104187;-80
2021/11/23 11:33:21;;;;;;;16.70;8.33;;;;;;;5.37;79.22;101104.70;124987;1102;105522;-82
2021/11/23 11:38:51;;;;;;;17.20;8.37;;;;;;;5.34;79.80;101114.91;125196;1102;104140;-81
2021/11/23 11:41:38;;;;;;;19.03;10.07;;;;;;;5.34;79.63;101111.41;125085;1102;104270;-81
2021/11/23 11:44:20;;;;;;;21.67;10.73;;;;;;;5.34;79.52;101112.30;125223;1102;105876;-81
2021/11/23 11:47:05;;;;;;;20.80;10.77;;;;;;;5.35;80.03;101113.22;125242;1102;104306;-82
2021/11/23 11:49:59;;;;;;;18.57;9.17;;;;;;;5.33;79.68;101104.39;125262;1102;104163;-82
2021/11/23 11:52:34;;;;;;;13.67;7.30;;;;;;;5.29;79.29;101103.30;125270;1102;104239;-80